Time;durP1;ratioP1;P1;durP2;ratioP2;P2;SDS_P1;SDS_P2;PMS_P1;PMS_P2;Temp;Humidity;BMP_temperature;BMP_pressure;BME280_temperature;BME280_humidity;BME280_pressure;Samples;Min_cycle;Max_cycle;Signal;HPM_P1;HPM_P2
2023/04/17 00:02:18;;;;;;;;;;;8.40;99.90;;;;;;5054373;28;19963;-45
2023/04/17 00:04:45;;;;;;;;;;;8.40;99.90;;;;;;5054096;28;20048;-43
2023/04/17 00:07:11;;;;;;;;;;;8.40;99.90;;;;;;5054653;28;19941;-43
2023/04/17 00:09:38;;;;;;;;;;;8.40;99.90;;;;;;5054631;28;19935;-46
2023/04/17 00:12:05;;;;;;;;;;;8.40;99.90;;;;;;5054180;28;19990;-40
2023/04/17 00:14:33;;;;;;;;;;;8.40;99.90;;;;;;5063183;28;19988;-41
2023/04/17 00:16:59;;;;;;;;;;;8.40;99.90;;;;;;5057673;28;19956;-44
2023/04/17 00:19:26;;;;;;;;;;;8.40;99.90;;;;;;5063540;28;19982;-42
2023/04/17 00:21:53;;;;;;;;;;;8.40;99.90;;;;;;5071057;28;19936;-42
2023/04/17 00:24:19;;;;;;;;;;;8.40;99.90;;;;;;5062975;28;20021;-46
2023/04/17 00:26:46;;;;;;;;;;;8.30;99.90;;;;;;5058488;28;19967;-42
2023/04/17 00:29:12;;;;;;;;;;;8.40;99.90;;;;;;5053840;28;19937;-43
2023/04/17 00:31:40;;;;;;;;;;;8.40;99.90;;;;;;5033298;28;20031;-43
2023/04/17 00:34:07;;;;;;;;;;;8.40;99.90;;;;;;5033771;28;19938;-44
2023/04/17 00:36:34;;;;;;;;;;;8.40;99.90;;;;;;5043137;28;20354;-46
2023/04/17 00:39:00;;;;;;;;;;;8.40;99.90;;;;;;5040568;28;19985;-41
2023/04/17 00:41:27;;;;;;;;;;;8.40;99.90;;;;;;5052729;28;19990;-42
2023/04/17 00:43:54;;;;;;;;;;;8.40;99.90;;;;;;5054641;28;20024;-43
2023/04/17 00:46:20;;;;;;;;;;;8.40;99.90;;;;;;5054366;28;20050;-41
2023/04/17 00:48:48;;;;;;;;;;;8.40;99.90;;;;;;5053847;28;20000;-43
2023/04/17 00:51:15;;;;;;;;;;;8.40;99.90;;;;;;5051866;28;19933;-43
2023/04/17 00:53:41;;;;;;;;;;;8.30;99.90;;;;;;5052192;28;20015;-46
2023/04/17 00:56:08;;;;;;;;;;;8.30;99.90;;;;;;5053991;28;19976;-44
2023/04/17 00:58:35;;;;;;;;;;;8.40;99.90;;;;;;5052062;28;19935;-47
2023/04/17 01:01:01;;;;;;;;;;;8.40;99.90;;;;;;5051995;28;20035;-41
2023/04/17 01:03:30;;;;;;;;;;;8.40;99.90;;;;;;5044081;28;20033;-42
2023/04/17 01:05:58;;;;;;;;;;;8.40;99.90;;;;;;5057819;28;20075;-40
2023/04/17 01:08:25;;;;;;;;;;;8.40;99.90;;;;;;5054402;28;19937;-42
2023/04/17 01:10:52;;;;;;;;;;;8.40;99.90;;;;;;5050191;28;20393;-41
2023/04/17 01:13:18;;;;;;;;;;;8.30;99.90;;;;;;5052013;28;19937;-43
2023/04/17 01:15:45;;;;;;;;;;;8.30;99.90;;;;;;5059052;28;20020;-42
2023/04/17 01:18:12;;;;;;;;;;;8.30;99.90;;;;;;5067338;28;19960;-44
2023/04/17 01:20:39;;;;;;;;;;;8.30;99.90;;;;;;5061532;28;19972;-43
2023/04/17 01:23:06;;;;;;;;;;;8.30;99.90;;;;;;5058662;28;20366;-45
2023/04/17 01:25:34;;;;;;;;;;;8.40;99.90;;;;;;5052526;28;20423;-43
2023/04/17 01:28:01;;;;;;;;;;;8.30;99.90;;;;;;5040055;28;20352;-42
2023/04/17 01:30:28;;;;;;;;;;;8.30;99.90;;;;;;5042210;28;19940;-43
2023/04/17 01:32:55;;;;;;;;;;;8.30;99.90;;;;;;5048941;28;19939;-42
2023/04/17 01:35:21;;;;;;;;;;;8.30;99.90;;;;;;5052004;28;19938;-41
2023/04/17 01:37:48;;;;;;;;;;;8.30;99.90;;;;;;5052890;28;19946;-44
2023/04/17 01:40:15;;;;;;;;;;;8.30;99.90;;;;;;5051851;28;20431;-43
2023/04/17 01:42:43;;;;;;;;;;;8.30;99.90;;;;;;5051204;28;19984;-43
2023/04/17 01:45:10;;;;;;;;;;;8.30;99.90;;;;;;5052331;28;20291;-43
2023/04/17 01:47:36;;;;;;;;;;;8.30;99.90;;;;;;5050801;28;20646;-42
2023/04/17 01:50:03;;;;;;;;;;;8.30;99.90;;;;;;5052780;28;20308;-42
2023/04/17 01:52:30;;;;;;;;;;;8.30;99.90;;;;;;5052572;28;20387;-44
2023/04/17 01:54:56;;;;;;;;;;;8.30;99.90;;;;;;5055904;28;19983;-42
2023/04/17 01:57:23;;;;;;;;;;;8.30;99.90;;;;;;5037402;28;20024;-41
2023/04/17 01:59:51;;;;;;;;;;;8.40;99.90;;;;;;5063621;28;20060;-42
2023/04/17 02:02:18;;;;;;;;;;;8.40;99.90;;;;;;5032783;28;20034;-43
2023/04/17 02:04:44;;;;;;;;;;;8.40;99.90;;;;;;5069594;28;19997;-41
2023/04/17 02:07:11;;;;;;;;;;;8.40;99.90;;;;;;5046717;28;20462;-41
2023/04/17 02:09:38;;;;;;;;;;;8.40;99.90;;;;;;5051485;28;19948;-41
2023/04/17 02:12:05;;;;;;;;;;;8.40;99.90;;;;;;5057377;28;19997;-44
2023/04/17 02:14:31;;;;;;;;;;;8.40;99.90;;;;;;5053364;28;19958;-43
2023/04/17 02:16:59;;;;;;;;;;;8.40;99.90;;;;;;5051637;28;20000;-43
2023/04/17 02:19:26;;;;;;;;;;;8.40;99.90;;;;;;5049040;28;20021;-41
2023/04/17 02:21:52;;;;;;;;;;;8.40;99.90;;;;;;5051787;28;20006;-42
2023/04/17 02:24:19;;;;;;;;;;;8.40;99.90;;;;;;5069890;28;19961;-47
2023/04/17 02:26:46;;;;;;;;;;;8.30;99.90;;;;;;5038556;28;20812;-41
2023/04/17 02:29:12;;;;;;;;;;;8.40;99.90;;;;;;5064436;28;19938;-41
2023/04/17 02:31:39;;;;;;;;;;;8.40;99.90;;;;;;5049211;28;19989;-47
2023/04/17 02:34:07;;;;;;;;;;;8.40;99.90;;;;;;5051830;28;19967;-45
2023/04/17 02:36:34;;;;;;;;;;;8.40;99.90;;;;;;5050232;28;19924;-44
2023/04/17 02:39:00;;;;;;;;;;;8.40;99.90;;;;;;5051656;28;20345;-40
2023/04/17 02:41:27;;;;;;;;;;;8.40;99.90;;;;;;5051123;28;20389;-43
2023/04/17 02:43:55;;;;;;;;;;;8.40;99.90;;;;;;5049699;28;20052;-45
2023/04/17 02:46:22;;;;;;;;;;;8.40;99.90;;;;;;5050091;28;19942;-44
2023/04/17 02:48:48;;;;;;;;;;;8.40;99.90;;;;;;5046408;28;19989;-46
2023/04/17 02:51:17;;;;;;;;;;;8.40;99.90;;;;;;5051586;28;19937;-44
2023/04/17 02:53:43;;;;;;;;;;;8.40;99.90;;;;;;5059781;28;19935;-43
2023/04/17 02:56:10;;;;;;;;;;;8.40;99.90;;;;;;5048208;28;19979;-45
2023/04/17 02:58:37;;;;;;;;;;;8.40;99.90;;;;;;5038562;28;20390;-41
2023/04/17 03:01:03;;;;;;;;;;;8.40;99.90;;;;;;5050409;28;19937;-42
2023/04/17 03:03:33;;;;;;;;;;;8.40;99.90;;;;;;5036088;28;19955;-45
2023/04/17 03:06:00;;;;;;;;;;;8.40;99.90;;;;;;5063200;28;20308;-44
2023/04/17 03:08:34;;;;;;;;;;;8.40;99.90;;;;;;5030779;28;19978;-45
2023/04/17 03:11:01;;;;;;;;;;;8.40;99.90;;;;;;5043940;28;20017;-40
2023/04/17 03:13:27;;;;;;;;;;;8.40;99.90;;;;;;5059177;28;19980;-41
2023/04/17 03:15:54;;;;;;;;;;;8.40;99.90;;;;;;5041084;28;20400;-44
2023/04/17 03:18:21;;;;;;;;;;;8.40;99.90;;;;;;5043604;28;19989;-42
2023/04/17 03:20:47;;;;;;;;;;;8.30;99.90;;;;;;5036314;28;19939;-42
2023/04/17 03:23:14;;;;;;;;;;;8.40;99.90;;;;;;5065120;28;20379;-42
2023/04/17 03:25:42;;;;;;;;;;;8.40;99.90;;;;;;5055945;28;20025;-43
2023/04/17 03:28:09;;;;;;;;;;;8.40;99.90;;;;;;5054537;28;20020;-42
2023/04/17 03:30:35;;;;;;;;;;;8.40;99.90;;;;;;5051303;28;19980;-43
2023/04/17 03:33:02;;;;;;;;;;;8.40;99.90;;;;;;5054584;28;19979;-42
2023/04/17 03:35:29;;;;;;;;;;;8.30;99.90;;;;;;5054919;28;19931;-41
2023/04/17 03:37:55;;;;;;;;;;;8.40;99.90;;;;;;5057017;28;19940;-41
2023/04/17 03:40:22;;;;;;;;;;;8.30;99.90;;;;;;5053376;28;19943;-44
2023/04/17 03:42:50;;;;;;;;;;;8.40;99.90;;;;;;5053890;28;19946;-41
2023/04/17 03:45:16;;;;;;;;;;;8.30;99.90;;;;;;5055133;28;19957;-42
2023/04/17 03:47:43;;;;;;;;;;;8.30;99.90;;;;;;5070913;28;19937;-41
2023/04/17 03:50:10;;;;;;;;;;;8.30;99.90;;;;;;5056018;28;19937;-45
2023/04/17 03:52:36;;;;;;;;;;;8.30;99.90;;;;;;5061261;28;19977;-42
2023/04/17 03:55:03;;;;;;;;;;;8.30;99.90;;;;;;5050320;28;20064;-45
2023/04/17 03:57:30;;;;;;;;;;;8.30;99.90;;;;;;5050767;28;20034;-44
2023/04/17 03:59:58;;;;;;;;;;;8.20;99.90;;;;;;5053324;28;19995;-42
2023/04/17 04:02:25;;;;;;;;;;;8.20;99.90;;;;;;5047893;28;20381;-43
2023/04/17 04:04:52;;;;;;;;;;;8.20;99.90;;;;;;5051381;28;19951;-42
2023/04/17 04:07:20;;;;;;;;;;;8.20;99.90;;;;;;5061167;28;20281;-44
2023/04/17 04:09:46;;;;;;;;;;;8.20;99.90;;;;;;5054121;28;20028;-43
2023/04/17 04:12:13;;;;;;;;;;;8.10;99.90;;;;;;5056519;28;20020;-42
2023/04/17 04:14:40;;;;;;;;;;;8.10;99.90;;;;;;5060112;28;19936;-42
2023/04/17 04:17:08;;;;;;;;;;;8.10;99.90;;;;;;5059747;28;20466;-42
2023/04/17 04:19:34;;;;;;;;;;;8.20;99.90;;;;;;5052762;28;20008;-45
2023/04/17 04:22:01;;;;;;;;;;;8.10;99.90;;;;;;5056449;28;19956;-43
2023/04/17 04:24:28;;;;;;;;;;;8.10;99.90;;;;;;5066903;28;20000;-45
2023/04/17 04:27:04;;;;;;;;;;;8.10;99.90;;;;;;5053556;28;19931;-42
2023/04/17 04:29:30;;;;;;;;;;;8.10;99.90;;;;;;5066667;28;19937;-44
2023/04/17 04:31:57;;;;;;;;;;;8.10;99.90;;;;;;5057005;28;19940;-40
2023/04/17 04:34:28;;;;;;;;;;;8.10;99.90;;;;;;5054202;28;19944;-43
2023/04/17 04:36:55;;;;;;;;;;;8.00;99.90;;;;;;5050877;28;19947;-42
2023/04/17 04:39:21;;;;;;;;;;;8.00;99.90;;;;;;5039522;28;19937;-44
2023/04/17 04:41:48;;;;;;;;;;;8.00;99.90;;;;;;5054659;28;19933;-47
2023/04/17 04:44:15;;;;;;;;;;;8.00;99.90;;;;;;5052499;28;19993;-46
2023/04/17 04:46:42;;;;;;;;;;;8.00;99.90;;;;;;5052780;28;20061;-43
2023/04/17 04:49:08;;;;;;;;;;;8.00;99.90;;;;;;5051939;28;19977;-45
2023/04/17 04:51:36;;;;;;;;;;;8.00;99.90;;;;;;5044066;28;19972;-41
2023/04/17 04:54:03;;;;;;;;;;;8.10;99.90;;;;;;5067530;28;19933;-46
2023/04/17 04:56:30;;;;;;;;;;;8.00;99.90;;;;;;5053445;28;19941;-43
2023/04/17 04:58:56;;;;;;;;;;;7.90;99.90;;;;;;5054796;28;19944;-44
2023/04/17 05:01:23;;;;;;;;;;;8.00;99.90;;;;;;5045907;28;20027;-44
2023/04/17 05:03:50;;;;;;;;;;;8.00;99.90;;;;;;5051779;28;19976;-45
2023/04/17 05:06:16;;;;;;;;;;;8.00;99.90;;;;;;5049056;28;19939;-41
2023/04/17 05:08:44;;;;;;;;;;;8.00;99.90;;;;;;5048232;28;19937;-45
2023/04/17 05:11:11;;;;;;;;;;;8.00;99.90;;;;;;5059166;28;19931;-42
2023/04/17 05:13:38;;;;;;;;;;;8.00;99.90;;;;;;5063785;28;19933;-44
2023/04/17 05:16:05;;;;;;;;;;;8.00;99.90;;;;;;5052608;28;20070;-45
2023/04/17 05:18:31;;;;;;;;;;;8.00;99.90;;;;;;5042916;28;19960;-40
2023/04/17 05:20:58;;;;;;;;;;;8.00;99.90;;;;;;5050910;28;19988;-44
2023/04/17 05:23:25;;;;;;;;;;;8.00;99.90;;;;;;5051656;28;20022;-43
2023/04/17 05:25:53;;;;;;;;;;;8.00;99.90;;;;;;5067157;28;20377;-46
2023/04/17 05:28:19;;;;;;;;;;;8.00;99.90;;;;;;5048393;28;20033;-42
2023/04/17 05:30:46;;;;;;;;;;;8.00;99.90;;;;;;5050637;28;19999;-46
2023/04/17 05:33:12;;;;;;;;;;;8.00;99.90;;;;;;5052976;28;20019;-44
2023/04/17 05:35:40;;;;;;;;;;;8.00;99.90;;;;;;5052384;28;19935;-43
2023/04/17 05:38:06;;;;;;;;;;;8.00;99.90;;;;;;5050478;28;19936;-42
2023/04/17 05:40:33;;;;;;;;;;;8.00;99.90;;;;;;5045786;28;20356;-40
2023/04/17 05:43:06;;;;;;;;;;;8.00;99.90;;;;;;5037737;28;19981;-43
2023/04/17 05:45:33;;;;;;;;;;;8.00;99.90;;;;;;5051295;28;19925;-42
2023/04/17 05:47:59;;;;;;;;;;;8.00;99.90;;;;;;5051044;28;19976;-43
2023/04/17 05:50:26;;;;;;;;;;;8.00;99.90;;;;;;5049227;28;19933;-41
2023/04/17 05:52:53;;;;;;;;;;;8.00;99.90;;;;;;5051663;28;19934;-41
2023/04/17 05:55:19;;;;;;;;;;;8.00;99.90;;;;;;5050680;28;19937;-42
2023/04/17 05:57:46;;;;;;;;;;;7.90;99.90;;;;;;5041467;28;19938;-45
2023/04/17 06:00:15;;;;;;;;;;;7.90;99.90;;;;;;5042966;28;19993;-41
2023/04/17 06:02:42;;;;;;;;;;;7.90;99.90;;;;;;5046932;28;19991;-45
2023/04/17 06:05:09;;;;;;;;;;;7.90;99.90;;;;;;5042522;28;19954;-44
2023/04/17 06:07:37;;;;;;;;;;;7.90;99.90;;;;;;5050217;28;19943;-42
2023/04/17 06:10:04;;;;;;;;;;;7.90;99.90;;;;;;5047141;28;20825;-41
2023/04/17 06:12:31;;;;;;;;;;;7.90;99.90;;;;;;5051012;28;19937;-42
2023/04/17 06:14:57;;;;;;;;;;;8.00;99.90;;;;;;5052864;28;19934;-42
2023/04/17 06:17:25;;;;;;;;;;;8.00;99.90;;;;;;5052673;28;20391;-43
2023/04/17 06:19:52;;;;;;;;;;;8.00;99.90;;;;;;5052007;28;20006;-41
2023/04/17 06:22:18;;;;;;;;;;;8.00;99.90;;;;;;5052349;28;20029;-42
2023/04/17 06:24:45;;;;;;;;;;;8.00;99.90;;;;;;5051788;28;20038;-42
2023/04/17 06:27:12;;;;;;;;;;;8.00;99.90;;;;;;5051618;28;19938;-41
2023/04/17 06:29:38;;;;;;;;;;;8.10;99.90;;;;;;5052358;28;20033;-43
2023/04/17 06:32:05;;;;;;;;;;;8.10;99.90;;;;;;5051319;28;19981;-45
2023/04/17 06:34:33;;;;;;;;;;;8.20;99.90;;;;;;5052244;28;20386;-44
2023/04/17 06:37:00;;;;;;;;;;;8.20;99.90;;;;;;5051259;28;19948;-44
2023/04/17 06:39:27;;;;;;;;;;;8.20;99.90;;;;;;5051370;28;19993;-42
2023/04/17 06:41:54;;;;;;;;;;;8.20;99.90;;;;;;5051374;28;19937;-47
2023/04/17 06:44:21;;;;;;;;;;;8.30;99.90;;;;;;5050677;28;20371;-44
2023/04/17 06:46:50;;;;;;;;;;;8.30;99.90;;;;;;5050643;28;19995;-45
2023/04/17 06:49:17;;;;;;;;;;;8.30;99.90;;;;;;5051049;28;19944;-41
2023/04/17 06:51:46;;;;;;;;;;;8.40;99.90;;;;;;5051265;28;20393;-45
2023/04/17 06:54:12;;;;;;;;;;;8.40;99.90;;;;;;5050561;28;19943;-42
2023/04/17 06:56:40;;;;;;;;;;;8.50;99.90;;;;;;5052198;28;19969;-44
2023/04/17 06:59:06;;;;;;;;;;;8.50;99.90;;;;;;5052136;28;19937;-43
2023/04/17 07:01:33;;;;;;;;;;;8.50;99.90;;;;;;5051078;28;20032;-44
2023/04/17 07:04:00;;;;;;;;;;;8.50;99.90;;;;;;5050952;28;19947;-41
2023/04/17 07:06:28;;;;;;;;;;;8.60;99.90;;;;;;5049693;28;19953;-42
2023/04/17 07:08:55;;;;;;;;;;;8.60;99.90;;;;;;5052180;28;20478;-42
2023/04/17 07:11:22;;;;;;;;;;;8.60;99.90;;;;;;5051137;28;20380;-42
2023/04/17 07:13:49;;;;;;;;;;;8.70;99.90;;;;;;5051904;28;19996;-43
2023/04/17 07:16:16;;;;;;;;;;;8.70;99.90;;;;;;5051761;28;20011;-41
2023/04/17 07:18:42;;;;;;;;;;;8.70;99.90;;;;;;5050105;28;19934;-43
2023/04/17 07:21:09;;;;;;;;;;;8.80;99.90;;;;;;5051592;28;19985;-42
2023/04/17 07:23:36;;;;;;;;;;;8.80;99.90;;;;;;5050397;28;20382;-42
2023/04/17 07:26:04;;;;;;;;;;;8.80;99.90;;;;;;5050502;28;20487;-43
2023/04/17 07:28:30;;;;;;;;;;;8.80;99.90;;;;;;5050608;28;20020;-46
2023/04/17 07:30:57;;;;;;;;;;;8.90;99.90;;;;;;5051937;28;20421;-45
2023/04/17 07:33:24;;;;;;;;;;;9.00;99.90;;;;;;5049185;28;20300;-43
2023/04/17 07:35:52;;;;;;;;;;;9.00;99.90;;;;;;5050097;28;20351;-41
2023/04/17 07:38:19;;;;;;;;;;;9.10;99.90;;;;;;5051633;28;19944;-46
2023/04/17 07:40:45;;;;;;;;;;;9.10;99.90;;;;;;5051954;28;20032;-44
2023/04/17 07:43:14;;;;;;;;;;;9.30;99.90;;;;;;5050825;28;19990;-44
2023/04/17 07:45:40;;;;;;;;;;;9.30;99.90;;;;;;5050042;28;19950;-43
2023/04/17 07:48:07;;;;;;;;;;;9.30;99.90;;;;;;5050798;28;20032;-42
2023/04/17 07:50:34;;;;;;;;;;;9.40;99.90;;;;;;5051445;28;19938;-41
2023/04/17 07:53:00;;;;;;;;;;;9.50;99.90;;;;;;5051684;28;20414;-41
2023/04/17 07:55:27;;;;;;;;;;;9.50;99.90;;;;;;5050069;28;20016;-43
2023/04/17 07:57:54;;;;;;;;;;;9.60;99.90;;;;;;5051663;28;20269;-41
2023/04/17 08:00:22;;;;;;;;;;;9.70;99.90;;;;;;5051510;28;19981;-42
2023/04/17 08:02:49;;;;;;;;;;;9.70;99.90;;;;;;5053407;28;19938;-42
2023/04/17 08:05:16;;;;;;;;;;;9.80;99.90;;;;;;5053485;28;19963;-40
2023/04/17 08:07:42;;;;;;;;;;;9.90;99.90;;;;;;5055336;28;19985;-41
2023/04/17 08:10:09;;;;;;;;;;;9.90;99.90;;;;;;5053920;28;19972;-43
2023/04/17 08:12:36;;;;;;;;;;;9.90;99.90;;;;;;5054004;28;19999;-43
2023/04/17 08:15:03;;;;;;;;;;;10.00;99.90;;;;;;5053604;28;20405;-41
2023/04/17 08:17:32;;;;;;;;;;;10.10;99.90;;;;;;5053599;28;20423;-42
2023/04/17 08:19:59;;;;;;;;;;;10.10;99.90;;;;;;5052029;28;19985;-42
2023/04/17 08:22:27;;;;;;;;;;;10.20;99.90;;;;;;5053988;28;19944;-41
2023/04/17 08:24:56;;;;;;;;;;;10.20;99.90;;;;;;5054868;28;19935;-45
2023/04/17 08:27:23;;;;;;;;;;;10.20;99.90;;;;;;5054605;28;19941;-41
2023/04/17 08:29:50;;;;;;;;;;;10.30;99.90;;;;;;5052591;28;19980;-42
2023/04/17 08:32:17;;;;;;;;;;;10.40;99.90;;;;;;5053503;28;19939;-41
2023/04/17 08:34:45;;;;;;;;;;;10.40;99.90;;;;;;5054273;28;19996;-43
2023/04/17 08:37:12;;;;;;;;;;;10.50;99.90;;;;;;5053617;28;19944;-43
2023/04/17 08:39:38;;;;;;;;;;;10.60;99.90;;;;;;5053855;28;19982;-42
2023/04/17 08:42:06;;;;;;;;;;;10.60;99.90;;;;;;5054371;28;20042;-42
2023/04/17 08:44:33;;;;;;;;;;;10.60;99.90;;;;;;5053378;28;19939;-44
2023/04/17 08:47:01;;;;;;;;;;;10.70;99.90;;;;;;5053998;28;20412;-40
2023/04/17 08:49:28;;;;;;;;;;;10.70;99.90;;;;;;5053693;28;19948;-41
2023/04/17 08:51:56;;;;;;;;;;;10.80;99.90;;;;;;5053417;28;19983;-43
2023/04/17 08:54:22;;;;;;;;;;;10.90;99.90;;;;;;5054216;28;20018;-40
2023/04/17 08:56:49;;;;;;;;;;;11.10;99.90;;;;;;5053314;28;20207;-40
2023/04/17 08:59:16;;;;;;;;;;;11.20;99.90;;;;;;5052599;28;20027;-42
2023/04/17 09:01:58;;;;;;;;;;;11.30;99.90;;;;;;5053145;28;20027;-41
2023/04/17 09:04:33;;;;;;;;;;;11.50;99.90;;;;;;5053063;28;20021;-41
2023/04/17 09:07:02;;;;;;;;;;;11.60;99.90;;;;;;5052595;28;19954;-43
2023/04/17 09:09:32;;;;;;;;;;;11.70;99.90;;;;;;5053909;28;20004;-43
2023/04/17 09:12:07;;;;;;;;;;;11.80;99.90;;;;;;5052639;28;20284;-42
2023/04/17 09:14:34;;;;;;;;;;;11.90;99.90;;;;;;5052424;28;19941;-44
2023/04/17 09:17:01;;;;;;;;;;;12.10;99.90;;;;;;5053827;28;20007;-42
2023/04/17 09:19:27;;;;;;;;;;;12.30;99.90;;;;;;5053026;28;19935;-42
2023/04/17 09:21:55;;;;;;;;;;;12.60;99.90;;;;;;5052872;28;19937;-42
2023/04/17 09:24:33;;;;;;;;;;;12.80;99.90;;;;;;5053673;28;20061;-45
2023/04/17 09:27:06;;;;;;;;;;;12.90;99.90;;;;;;5053476;28;19980;-42
2023/04/17 09:29:33;;;;;;;;;;;13.00;99.90;;;;;;5050918;28;20242;-40
2023/04/17 09:32:12;;;;;;;;;;;13.20;99.90;;;;;;5053085;28;20371;-40
2023/04/17 09:34:40;;;;;;;;;;;13.30;99.90;;;;;;5053356;28;19981;-42
2023/04/17 09:37:06;;;;;;;;;;;13.30;99.90;;;;;;5053486;28;20035;-43
2023/04/17 09:39:35;;;;;;;;;;;13.30;99.90;;;;;;5053116;28;19936;-40
2023/04/17 09:42:03;;;;;;;;;;;13.30;99.90;;;;;;5051924;28;19991;-42
2023/04/17 09:44:29;;;;;;;;;;;13.30;99.90;;;;;;5053396;28;19935;-44
2023/04/17 09:46:56;;;;;;;;;;;13.30;99.90;;;;;;5051966;28;20014;-43
2023/04/17 09:49:23;;;;;;;;;;;13.50;99.90;;;;;;5053146;28;19997;-41
2023/04/17 09:51:50;;;;;;;;;;;13.60;99.90;;;;;;5052312;28;20040;-44
2023/04/17 09:54:17;;;;;;;;;;;13.80;99.90;;;;;;5052342;28;19987;-42
2023/04/17 09:56:48;;;;;;;;;;;13.90;99.90;;;;;;5053047;28;20342;-43
2023/04/17 09:59:15;;;;;;;;;;;14.10;99.90;;;;;;5052269;28;19930;-43
2023/04/17 10:01:42;;;;;;;;;;;14.20;99.90;;;;;;5052901;28;19937;-42
2023/04/17 10:04:08;;;;;;;;;;;14.30;99.90;;;;;;5052902;28;19937;-40
2023/04/17 10:06:35;;;;;;;;;;;14.30;99.90;;;;;;5050696;28;19988;-42
2023/04/17 10:09:03;;;;;;;;;;;14.30;99.90;;;;;;5051246;28;19941;-42
2023/04/17 10:11:30;;;;;;;;;;;14.20;99.90;;;;;;5052987;28;19939;-41
2023/04/17 10:14:11;;;;;;;;;;;14.20;99.90;;;;;;5052744;28;19962;-42
2023/04/17 10:16:39;;;;;;;;;;;14.30;99.90;;;;;;5050788;28;20019;-43
2023/04/17 10:19:24;;;;;;;;;;;14.50;99.90;;;;;;5051464;28;19939;-41
2023/04/17 10:22:06;;;;;;;;;;;14.70;99.90;;;;;;5052762;28;19940;-41
2023/04/17 10:24:32;;;;;;;;;;;15.20;99.90;;;;;;5050331;28;20025;-41
2023/04/17 10:27:00;;;;;;;;;;;15.50;99.90;;;;;;5052073;28;19954;-41
2023/04/17 10:29:41;;;;;;;;;;;15.70;99.90;;;;;;5050283;28;20379;-41
2023/04/17 10:32:16;;;;;;;;;;;15.70;99.90;;;;;;5052111;28;20308;-40
2023/04/17 10:34:43;;;;;;;;;;;15.80;99.90;;;;;;5050338;28;19939;-40
2023/04/17 10:37:14;;;;;;;;;;;15.90;99.90;;;;;;5052357;28;19989;-40
2023/04/17 10:39:50;;;;;;;;;;;15.80;99.90;;;;;;5052323;28;19946;-40
2023/04/17 10:42:19;;;;;;;;;;;15.90;99.90;;;;;;5051307;28;20117;-40
2023/04/17 10:44:46;;;;;;;;;;;15.90;99.90;;;;;;5051133;28;20046;-40
2023/04/17 10:47:14;;;;;;;;;;;15.80;99.90;;;;;;5051323;28;19963;-43
2023/04/17 10:49:50;;;;;;;;;;;16.00;99.90;;;;;;5051346;28;19988;-42
2023/04/17 10:52:38;;;;;;;;;;;16.30;99.90;;;;;;5050562;28;20018;-41
2023/04/17 10:55:06;;;;;;;;;;;16.40;99.90;;;;;;5052299;28;19939;-42
2023/04/17 10:57:52;;;;;;;;;;;16.20;99.90;;;;;;5051879;28;19943;-42
2023/04/17 11:00:19;;;;;;;;;;;16.10;99.90;;;;;;5051333;28;20034;-41
2023/04/17 11:02:49;;;;;;;;;;;16.20;99.90;;;;;;5051071;28;19942;-40
2023/04/17 11:05:15;;;;;;;;;;;16.50;99.90;;;;;;5050304;28;20301;-39
2023/04/17 11:07:43;;;;;;;;;;;16.70;99.90;;;;;;5050649;28;20041;-39
2023/04/17 11:10:09;;;;;;;;;;;16.80;99.90;;;;;;5050634;28;19938;-39
2023/04/17 11:12:38;;;;;;;;;;;16.70;99.90;;;;;;5051964;28;19934;-40
2023/04/17 11:15:05;;;;;;;;;;;16.70;99.90;;;;;;5050429;28;19986;-41
2023/04/17 11:17:31;;;;;;;;;;;16.70;99.90;;;;;;5031808;28;20086;-40
2023/04/17 11:19:59;;;;;;;;;;;16.70;99.90;;;;;;5031866;28;19944;-40
2023/04/17 11:22:27;;;;;;;;;;;16.80;99.90;;;;;;5031875;28;20428;-40
2023/04/17 11:24:53;;;;;;;;;;;16.90;99.90;;;;;;5031052;28;19937;-41
2023/04/17 11:27:21;;;;;;;;;;;17.00;99.90;;;;;;5050284;28;20419;-40
2023/04/17 11:29:48;;;;;;;;;;;16.90;99.90;;;;;;5050937;28;19978;-41
2023/04/17 11:32:15;;;;;;;;;;;16.50;99.90;;;;;;5052216;28;19938;-40
2023/04/17 11:34:41;;;;;;;;;;;16.30;99.90;;;;;;5050731;28;19935;-40
2023/04/17 11:37:12;;;;;;;;;;;16.00;99.90;;;;;;5053580;28;20011;-40
2023/04/17 11:39:41;;;;;;;;;;;16.00;99.90;;;;;;5054884;28;20007;-40
2023/04/17 11:42:07;;;;;;;;;;;16.30;99.90;;;;;;5055493;28;20319;-40
2023/04/17 11:44:34;;;;;;;;;;;16.40;99.90;;;;;;5055543;28;19935;-40
2023/04/17 11:47:02;;;;;;;;;;;16.40;99.90;;;;;;5054184;28;20056;-39
2023/04/17 11:49:29;;;;;;;;;;;16.60;99.90;;;;;;5055088;28;19978;-41
2023/04/17 11:51:55;;;;;;;;;;;16.80;99.90;;;;;;5054353;28;19981;-40
2023/04/17 11:54:26;;;;;;;;;;;17.00;99.90;;;;;;5053589;28;20023;-39
2023/04/17 11:57:00;;;;;;;;;;;17.20;99.90;;;;;;5053736;28;19958;-39
2023/04/17 11:59:30;;;;;;;;;;;17.40;99.90;;;;;;5053544;28;20381;-40
2023/04/17 12:01:59;;;;;;;;;;;17.50;99.90;;;;;;5054128;28;20026;-39
2023/04/17 12:04:27;;;;;;;;;;;17.50;99.40;;;;;;5051099;28;19988;-41
2023/04/17 12:06:54;;;;;;;;;;;17.50;99.90;;;;;;5052371;28;19981;-41
2023/04/17 12:09:23;;;;;;;;;;;17.50;99.90;;;;;;5053082;28;20316;-39
2023/04/17 12:11:52;;;;;;;;;;;17.50;99.90;;;;;;5053954;28;19940;-39
2023/04/17 12:14:18;;;;;;;;;;;17.40;99.80;;;;;;5061144;28;19949;-41
2023/04/17 12:16:48;;;;;;;;;;;17.40;99.90;;;;;;5058925;28;19940;-40
2023/04/17 12:19:15;;;;;;;;;;;17.40;99.90;;;;;;5053365;28;20347;-40
2023/04/17 12:21:42;;;;;;;;;;;17.40;99.90;;;;;;5074723;28;20033;-40
2023/04/17 12:24:09;;;;;;;;;;;17.50;99.90;;;;;;5062791;28;19941;-40
2023/04/17 12:26:36;;;;;;;;;;;17.50;98.50;;;;;;5054563;28;20012;-40
2023/04/17 12:29:04;;;;;;;;;;;17.50;99.90;;;;;;5054457;28;20449;-38
2023/04/17 12:31:30;;;;;;;;;;;17.40;99.90;;;;;;5053536;28;19941;-39
2023/04/17 12:33:57;;;;;;;;;;;17.40;98.40;;;;;;5053622;28;19985;-39
2023/04/17 12:36:24;;;;;;;;;;;17.50;99.50;;;;;;5053710;28;20233;-40
2023/04/17 12:38:50;;;;;;;;;;;17.70;99.50;;;;;;5054448;28;19986;-39
2023/04/17 12:41:17;;;;;;;;;;;17.80;97.70;;;;;;5052737;28;19984;-41
2023/04/17 12:43:43;;;;;;;;;;;17.90;97.20;;;;;;5069301;28;19943;-38
2023/04/17 12:46:11;;;;;;;;;;;17.90;96.10;;;;;;5051868;28;19994;-39
2023/04/17 12:48:38;;;;;;;;;;;18.10;97.00;;;;;;5052987;28;20071;-39
2023/04/17 12:51:05;;;;;;;;;;;18.20;95.50;;;;;;5053258;28;20031;-39
2023/04/17 12:53:31;;;;;;;;;;;18.40;95.50;;;;;;5053162;28;19945;-39
2023/04/17 12:55:58;;;;;;;;;;;18.60;96.40;;;;;;5052273;28;19988;-41
2023/04/17 12:58:24;;;;;;;;;;;18.80;94.50;;;;;;5064351;28;20367;-41
2023/04/17 13:00:51;;;;;;;;;;;18.90;95.40;;;;;;5063798;28;19932;-39
2023/04/17 13:03:19;;;;;;;;;;;18.80;97.10;;;;;;5052992;28;19977;-40
2023/04/17 13:05:46;;;;;;;;;;;18.50;92.40;;;;;;5052821;28;19937;-39
2023/04/17 13:08:13;;;;;;;;;;;18.20;94.50;;;;;;5052918;28;19958;-39
2023/04/17 13:10:40;;;;;;;;;;;18.10;96.80;;;;;;5053014;28;19945;-42
2023/04/17 13:13:07;;;;;;;;;;;18.20;95.70;;;;;;5058569;28;19933;-39
2023/04/17 13:15:33;;;;;;;;;;;18.20;95.30;;;;;;5073642;28;19995;-40
2023/04/17 13:18:01;;;;;;;;;;;18.00;95.10;;;;;;5073745;28;20005;-40
2023/04/17 13:20:29;;;;;;;;;;;17.70;95.80;;;;;;5058583;28;19943;-39
2023/04/17 13:22:55;;;;;;;;;;;17.60;97.80;;;;;;5052942;28;19940;-38
2023/04/17 13:25:22;;;;;;;;;;;17.80;97.10;;;;;;5060134;28;20376;-40
2023/04/17 13:27:48;;;;;;;;;;;17.90;95.70;;;;;;5050566;28;20301;-38
2023/04/17 13:30:15;;;;;;;;;;;18.00;95.20;;;;;;5053497;28;20005;-40
2023/04/17 13:32:42;;;;;;;;;;;18.00;94.00;;;;;;5053401;28;19944;-40
2023/04/17 13:35:11;;;;;;;;;;;18.10;93.90;;;;;;5068582;28;19936;-39
2023/04/17 13:37:40;;;;;;;;;;;18.20;94.00;;;;;;5073225;28;20413;-39
2023/04/17 13:40:08;;;;;;;;;;;18.40;92.00;;;;;;5053188;28;20380;-40
2023/04/17 13:42:35;;;;;;;;;;;18.50;91.00;;;;;;5052348;28;19941;-40
2023/04/17 13:45:02;;;;;;;;;;;18.60;93.60;;;;;;5063728;28;19975;-38
2023/04/17 13:47:28;;;;;;;;;;;18.70;92.90;;;;;;5052187;28;19958;-40
2023/04/17 13:49:55;;;;;;;;;;;18.80;95.00;;;;;;5052615;28;19968;-39
2023/04/17 13:52:22;;;;;;;;;;;18.70;93.60;;;;;;5051867;28;20041;-38
2023/04/17 13:54:50;;;;;;;;;;;18.50;91.20;;;;;;5053052;28;20025;-38
2023/04/17 13:57:17;;;;;;;;;;;18.50;93.50;;;;;;5052867;28;20023;-40
2023/04/17 13:59:44;;;;;;;;;;;18.40;88.00;;;;;;5047964;28;19932;-39
2023/04/17 14:02:11;;;;;;;;;;;18.40;90.60;;;;;;5050429;28;19936;-39
2023/04/17 14:04:37;;;;;;;;;;;18.30;91.60;;;;;;5051724;28;19978;-38
2023/04/17 14:07:04;;;;;;;;;;;18.20;84.60;;;;;;5051886;28;20241;-41
2023/04/17 14:09:30;;;;;;;;;;;18.00;90.00;;;;;;5058572;28;19940;-39
2023/04/17 14:11:58;;;;;;;;;;;18.00;89.50;;;;;;5065059;28;19983;-40
2023/04/17 14:14:25;;;;;;;;;;;18.10;92.80;;;;;;5049342;28;19981;-38
2023/04/17 14:16:52;;;;;;;;;;;18.20;88.50;;;;;;5050727;28;20051;-39
2023/04/17 14:19:18;;;;;;;;;;;18.20;86.20;;;;;;5049293;28;20353;-38
2023/04/17 14:21:45;;;;;;;;;;;18.20;85.30;;;;;;5065798;28;19987;-41
2023/04/17 14:24:11;;;;;;;;;;;18.30;87.40;;;;;;5051619;28;19983;-39
2023/04/17 14:26:38;;;;;;;;;;;18.30;90.10;;;;;;5050270;28;19983;-39